sensor_id;sensor_type;location;lat;lon;timestamp;P1;durP1;ratioP1;P2;durP2;ratioP2
25191;SDS011;13143;50.924;5.320;2023-12-20T00:00:35;18.17;;;3.50;;
25191;SDS011;13143;50.924;5.320;2023-12-20T00:03:02;17.80;;;4.15;;
25191;SDS011;13143;50.924;5.320;2023-12-20T00:05:29;17.35;;;3.00;;
25191;SDS011;13143;50.924;5.320;2023-12-20T00:07:57;17.40;;;4.10;;
25191;SDS011;13143;50.924;5.320;2023-12-20T00:10:23;17.60;;;3.50;;
25191;SDS011;13143;50.924;5.320;2023-12-20T00:12:48;15.07;;;2.65;;
25191;SDS011;13143;50.924;5.320;2023-12-20T00:15:14;26.10;;;3.70;;
25191;SDS011;13143;50.924;5.320;2023-12-20T00:17:39;26.52;;;3.83;;
25191;SDS011;13143;50.924;5.320;2023-12-20T00:20:05;22.52;;;3.30;;
25191;SDS011;13143;50.924;5.320;2023-12-20T00:22:32;12.50;;;2.50;;
25191;SDS011;13143;50.924;5.320;2023-12-20T00:24:57;16.77;;;2.33;;
25191;SDS011;13143;50.924;5.320;2023-12-20T00:27:23;16.23;;;2.95;;
25191;SDS011;13143;50.924;5.320;2023-12-20T00:29:49;12.10;;;2.42;;
25191;SDS011;13143;50.924;5.320;2023-12-20T00:32:15;12.05;;;2.50;;
25191;SDS011;13143;50.924;5.320;2023-12-20T00:34:42;17.25;;;2.45;;
25191;SDS011;13143;50.924;5.320;2023-12-20T00:37:08;14.77;;;2.40;;
25191;SDS011;13143;50.924;5.320;2023-12-20T00:39:33;23.15;;;2.78;;
25191;SDS011;13143;50.924;5.320;2023-12-20T00:41:59;14.23;;;2.33;;
25191;SDS011;13143;50.924;5.320;2023-12-20T00:44:25;14.93;;;2.33;;
25191;SDS011;13143;50.924;5.320;2023-12-20T00:46:51;27.13;;;4.45;;
25191;SDS011;13143;50.924;5.320;2023-12-20T00:49:17;17.38;;;2.40;;
25191;SDS011;13143;50.924;5.320;2023-12-20T00:51:42;19.20;;;2.58;;
25191;SDS011;13143;50.924;5.320;2023-12-20T00:54:08;19.15;;;3.00;;
25191;SDS011;13143;50.924;5.320;2023-12-20T00:56:34;18.67;;;2.75;;
25191;SDS011;13143;50.924;5.320;2023-12-20T00:59:00;20.25;;;2.47;;
25191;SDS011;13143;50.924;5.320;2023-12-20T01:01:26;14.38;;;2.28;;
25191;SDS011;13143;50.924;5.320;2023-12-20T01:03:52;17.27;;;3.30;;
25191;SDS011;13143;50.924;5.320;2023-12-20T01:06:18;21.45;;;2.70;;
25191;SDS011;13143;50.924;5.320;2023-12-20T01:08:44;11.48;;;2.00;;
25191;SDS011;13143;50.924;5.320;2023-12-20T01:11:10;22.02;;;2.47;;
25191;SDS011;13143;50.924;5.320;2023-12-20T01:13:35;15.60;;;2.90;;
25191;SDS011;13143;50.924;5.320;2023-12-20T01:16:01;12.45;;;2.45;;
25191;SDS011;13143;50.924;5.320;2023-12-20T01:18:27;14.00;;;2.58;;
25191;SDS011;13143;50.924;5.320;2023-12-20T01:20:53;18.13;;;3.05;;
25191;SDS011;13143;50.924;5.320;2023-12-20T01:23:19;14.52;;;2.42;;
25191;SDS011;13143;50.924;5.320;2023-12-20T01:25:44;19.02;;;2.83;;
25191;SDS011;13143;50.924;5.320;2023-12-20T01:28:10;19.92;;;2.97;;
25191;SDS011;13143;50.924;5.320;2023-12-20T01:30:36;14.23;;;3.20;;
25191;SDS011;13143;50.924;5.320;2023-12-20T01:33:01;15.70;;;2.78;;
25191;SDS011;13143;50.924;5.320;2023-12-20T01:35:27;18.10;;;2.92;;
25191;SDS011;13143;50.924;5.320;2023-12-20T01:37:53;19.92;;;3.50;;
25191;SDS011;13143;50.924;5.320;2023-12-20T01:40:22;22.80;;;4.22;;
25191;SDS011;13143;50.924;5.320;2023-12-20T01:42:57;19.25;;;2.88;;
25191;SDS011;13143;50.924;5.320;2023-12-20T01:45:23;15.55;;;2.88;;
25191;SDS011;13143;50.924;5.320;2023-12-20T01:47:49;17.35;;;3.08;;
25191;SDS011;13143;50.924;5.320;2023-12-20T01:50:15;14.55;;;2.90;;
25191;SDS011;13143;50.924;5.320;2023-12-20T01:52:42;14.82;;;2.75;;
25191;SDS011;13143;50.924;5.320;2023-12-20T01:55:08;21.33;;;3.47;;
25191;SDS011;13143;50.924;5.320;2023-12-20T01:57:39;20.23;;;2.88;;
25191;SDS011;13143;50.924;5.320;2023-12-20T02:00:07;11.98;;;2.88;;
25191;SDS011;13143;50.924;5.320;2023-12-20T02:02:39;13.07;;;2.60;;
25191;SDS011;13143;50.924;5.320;2023-12-20T02:05:06;12.77;;;2.90;;
25191;SDS011;13143;50.924;5.320;2023-12-20T02:07:32;15.77;;;2.65;;
25191;SDS011;13143;50.924;5.320;2023-12-20T02:10:00;19.80;;;3.53;;
25191;SDS011;13143;50.924;5.320;2023-12-20T02:12:31;18.25;;;2.90;;
25191;SDS011;13143;50.924;5.320;2023-12-20T02:14:57;15.02;;;3.25;;
25191;SDS011;13143;50.924;5.320;2023-12-20T02:17:23;16.25;;;3.08;;
25191;SDS011;13143;50.924;5.320;2023-12-20T02:19:49;14.32;;;3.80;;
25191;SDS011;13143;50.924;5.320;2023-12-20T02:22:15;23.75;;;3.65;;
25191;SDS011;13143;50.924;5.320;2023-12-20T02:24:40;21.80;;;3.33;;
25191;SDS011;13143;50.924;5.320;2023-12-20T02:27:07;14.60;;;3.55;;
25191;SDS011;13143;50.924;5.320;2023-12-20T02:29:33;17.55;;;3.05;;
25191;SDS011;13143;50.924;5.320;2023-12-20T02:31:59;22.42;;;3.13;;
25191;SDS011;13143;50.924;5.320;2023-12-20T02:34:25;20.92;;;3.13;;
25191;SDS011;13143;50.924;5.320;2023-12-20T02:36:51;21.15;;;3.35;;
25191;SDS011;13143;50.924;5.320;2023-12-20T02:39:17;18.58;;;3.00;;
25191;SDS011;13143;50.924;5.320;2023-12-20T02:41:45;21.63;;;3.03;;
25191;SDS011;13143;50.924;5.320;2023-12-20T02:44:10;16.95;;;3.05;;
25191;SDS011;13143;50.924;5.320;2023-12-20T02:46:36;17.15;;;3.40;;
25191;SDS011;13143;50.924;5.320;2023-12-20T02:49:02;18.10;;;3.05;;
25191;SDS011;13143;50.924;5.320;2023-12-20T02:51:27;17.60;;;3.25;;
25191;SDS011;13143;50.924;5.320;2023-12-20T02:53:53;12.68;;;3.15;;
25191;SDS011;13143;50.924;5.320;2023-12-20T02:56:19;10.75;;;2.83;;
25191;SDS011;13143;50.924;5.320;2023-12-20T02:58:44;13.60;;;2.90;;
25191;SDS011;13143;50.924;5.320;2023-12-20T03:01:10;19.42;;;3.13;;
25191;SDS011;13143;50.924;5.320;2023-12-20T03:03:36;17.58;;;3.00;;
25191;SDS011;13143;50.924;5.320;2023-12-20T03:06:01;13.25;;;2.95;;
25191;SDS011;13143;50.924;5.320;2023-12-20T03:08:27;15.05;;;3.17;;
25191;SDS011;13143;50.924;5.320;2023-12-20T03:10:53;21.05;;;3.40;;
25191;SDS011;13143;50.924;5.320;2023-12-20T03:13:19;19.55;;;3.53;;
25191;SDS011;13143;50.924;5.320;2023-12-20T03:15:45;16.17;;;3.15;;
25191;SDS011;13143;50.924;5.320;2023-12-20T03:18:11;17.38;;;3.47;;
25191;SDS011;13143;50.924;5.320;2023-12-20T03:20:37;20.40;;;3.03;;
25191;SDS011;13143;50.924;5.320;2023-12-20T03:23:03;13.27;;;2.83;;
25191;SDS011;13143;50.924;5.320;2023-12-20T03:25:29;18.00;;;3.72;;
25191;SDS011;13143;50.924;5.320;2023-12-20T03:27:54;20.80;;;3.55;;
25191;SDS011;13143;50.924;5.320;2023-12-20T03:30:20;15.70;;;3.42;;
25191;SDS011;13143;50.924;5.320;2023-12-20T03:32:46;13.48;;;3.33;;
25191;SDS011;13143;50.924;5.320;2023-12-20T03:35:12;11.95;;;3.10;;
25191;SDS011;13143;50.924;5.320;2023-12-20T03:37:38;20.73;;;3.58;;
25191;SDS011;13143;50.924;5.320;2023-12-20T03:40:04;21.55;;;4.05;;
25191;SDS011;13143;50.924;5.320;2023-12-20T03:42:30;17.98;;;3.88;;
25191;SDS011;13143;50.924;5.320;2023-12-20T03:44:56;20.73;;;3.50;;
25191;SDS011;13143;50.924;5.320;2023-12-20T03:47:21;15.98;;;3.42;;
25191;SDS011;13143;50.924;5.320;2023-12-20T03:49:47;13.65;;;3.33;;
25191;SDS011;13143;50.924;5.320;2023-12-20T03:52:13;18.58;;;3.55;;
25191;SDS011;13143;50.924;5.320;2023-12-20T03:54:39;15.13;;;4.00;;
25191;SDS011;13143;50.924;5.320;2023-12-20T03:57:07;19.27;;;4.38;;
25191;SDS011;13143;50.924;5.320;2023-12-20T03:59:36;17.17;;;4.03;;
25191;SDS011;13143;50.924;5.320;2023-12-20T04:02:02;23.77;;;3.88;;
25191;SDS011;13143;50.924;5.320;2023-12-20T04:04:29;16.70;;;3.65;;
25191;SDS011;13143;50.924;5.320;2023-12-20T04:06:54;18.67;;;3.65;;
25191;SDS011;13143;50.924;5.320;2023-12-20T04:09:20;24.00;;;4.30;;
25191;SDS011;13143;50.924;5.320;2023-12-20T04:11:46;14.00;;;3.28;;
25191;SDS011;13143;50.924;5.320;2023-12-20T04:14:12;19.52;;;3.35;;
25191;SDS011;13143;50.924;5.320;2023-12-20T04:16:37;18.48;;;3.70;;
25191;SDS011;13143;50.924;5.320;2023-12-20T04:19:04;21.50;;;3.83;;
25191;SDS011;13143;50.924;5.320;2023-12-20T04:21:30;18.13;;;4.32;;
25191;SDS011;13143;50.924;5.320;2023-12-20T04:23:56;20.65;;;3.60;;
25191;SDS011;13143;50.924;5.320;2023-12-20T04:26:22;20.88;;;4.70;;
25191;SDS011;13143;50.924;5.320;2023-12-20T04:28:47;24.95;;;4.45;;
25191;SDS011;13143;50.924;5.320;2023-12-20T04:31:13;29.27;;;5.80;;
25191;SDS011;13143;50.924;5.320;2023-12-20T04:33:39;25.45;;;4.25;;
25191;SDS011;13143;50.924;5.320;2023-12-20T04:36:05;25.50;;;4.00;;
25191;SDS011;13143;50.924;5.320;2023-12-20T04:38:30;22.88;;;3.67;;
25191;SDS011;13143;50.924;5.320;2023-12-20T04:40:56;15.48;;;3.42;;
25191;SDS011;13143;50.924;5.320;2023-12-20T04:43:22;21.15;;;3.47;;
25191;SDS011;13143;50.924;5.320;2023-12-20T04:45:47;21.98;;;4.20;;
25191;SDS011;13143;50.924;5.320;2023-12-20T04:48:13;24.88;;;4.28;;
25191;SDS011;13143;50.924;5.320;2023-12-20T04:50:39;23.85;;;4.75;;
25191;SDS011;13143;50.924;5.320;2023-12-20T04:53:04;24.52;;;4.13;;
25191;SDS011;13143;50.924;5.320;2023-12-20T04:55:30;24.33;;;4.13;;
25191;SDS011;13143;50.924;5.320;2023-12-20T04:57:56;28.67;;;4.95;;
25191;SDS011;13143;50.924;5.320;2023-12-20T05:00:21;20.77;;;4.45;;
25191;SDS011;13143;50.924;5.320;2023-12-20T05:02:47;22.75;;;4.95;;
25191;SDS011;13143;50.924;5.320;2023-12-20T05:05:13;25.88;;;4.68;;
25191;SDS011;13143;50.924;5.320;2023-12-20T05:07:40;27.88;;;5.10;;
25191;SDS011;13143;50.924;5.320;2023-12-20T05:10:06;25.27;;;5.82;;
25191;SDS011;13143;50.924;5.320;2023-12-20T05:12:33;19.55;;;5.53;;
25191;SDS011;13143;50.924;5.320;2023-12-20T05:14:59;27.30;;;4.72;;
25191;SDS011;13143;50.924;5.320;2023-12-20T05:17:25;27.13;;;5.20;;
25191;SDS011;13143;50.924;5.320;2023-12-20T05:19:51;27.17;;;5.03;;
25191;SDS011;13143;50.924;5.320;2023-12-20T05:22:16;14.95;;;4.78;;
25191;SDS011;13143;50.924;5.320;2023-12-20T05:24:42;25.42;;;4.90;;
25191;SDS011;13143;50.924;5.320;2023-12-20T05:27:08;23.65;;;5.05;;
25191;SDS011;13143;50.924;5.320;2023-12-20T05:29:34;24.70;;;5.80;;
25191;SDS011;13143;50.924;5.320;2023-12-20T05:31:59;26.92;;;6.10;;
25191;SDS011;13143;50.924;5.320;2023-12-20T05:34:25;26.05;;;5.72;;
25191;SDS011;13143;50.924;5.320;2023-12-20T05:36:51;23.27;;;5.57;;
25191;SDS011;13143;50.924;5.320;2023-12-20T05:39:16;26.20;;;5.20;;
25191;SDS011;13143;50.924;5.320;2023-12-20T05:41:42;24.33;;;5.57;;
25191;SDS011;13143;50.924;5.320;2023-12-20T05:44:08;29.38;;;6.60;;
25191;SDS011;13143;50.924;5.320;2023-12-20T05:46:33;23.27;;;5.55;;
25191;SDS011;13143;50.924;5.320;2023-12-20T05:48:59;25.60;;;4.95;;
25191;SDS011;13143;50.924;5.320;2023-12-20T05:51:25;24.10;;;4.80;;
25191;SDS011;13143;50.924;5.320;2023-12-20T05:53:51;16.45;;;4.50;;
25191;SDS011;13143;50.924;5.320;2023-12-20T05:56:16;25.05;;;4.93;;
25191;SDS011;13143;50.924;5.320;2023-12-20T05:58:42;19.00;;;4.55;;
25191;SDS011;13143;50.924;5.320;2023-12-20T06:01:08;24.90;;;5.20;;
25191;SDS011;13143;50.924;5.320;2023-12-20T06:03:34;22.25;;;4.97;;
25191;SDS011;13143;50.924;5.320;2023-12-20T06:06:04;25.38;;;6.07;;
25191;SDS011;13143;50.924;5.320;2023-12-20T06:08:31;18.73;;;4.70;;
25191;SDS011;13143;50.924;5.320;2023-12-20T06:10:57;18.02;;;5.10;;
25191;SDS011;13143;50.924;5.320;2023-12-20T06:13:23;22.50;;;4.82;;
25191;SDS011;13143;50.924;5.320;2023-12-20T06:15:48;24.05;;;4.70;;
25191;SDS011;13143;50.924;5.320;2023-12-20T06:18:14;21.58;;;5.15;;
25191;SDS011;13143;50.924;5.320;2023-12-20T06:20:40;26.38;;;5.57;;
25191;SDS011;13143;50.924;5.320;2023-12-20T06:23:05;23.83;;;5.03;;
25191;SDS011;13143;50.924;5.320;2023-12-20T06:25:31;21.50;;;6.10;;
25191;SDS011;13143;50.924;5.320;2023-12-20T06:27:57;19.17;;;4.50;;
25191;SDS011;13143;50.924;5.320;2023-12-20T06:30:22;17.35;;;5.25;;
25191;SDS011;13143;50.924;5.320;2023-12-20T06:32:49;24.05;;;4.90;;
25191;SDS011;13143;50.924;5.320;2023-12-20T06:35:15;24.27;;;4.63;;
25191;SDS011;13143;50.924;5.320;2023-12-20T06:37:41;17.35;;;4.93;;
25191;SDS011;13143;50.924;5.320;2023-12-20T06:40:09;20.27;;;5.18;;
25191;SDS011;13143;50.924;5.320;2023-12-20T06:42:35;24.25;;;5.93;;
25191;SDS011;13143;50.924;5.320;2023-12-20T06:45:01;17.65;;;4.78;;
25191;SDS011;13143;50.924;5.320;2023-12-20T06:47:27;25.55;;;5.88;;
25191;SDS011;13143;50.924;5.320;2023-12-20T06:49:53;16.70;;;4.97;;
25191;SDS011;13143;50.924;5.320;2023-12-20T06:52:19;21.00;;;5.13;;
25191;SDS011;13143;50.924;5.320;2023-12-20T06:54:44;23.50;;;4.63;;
25191;SDS011;13143;50.924;5.320;2023-12-20T06:57:10;24.45;;;5.50;;
25191;SDS011;13143;50.924;5.320;2023-12-20T06:59:40;21.35;;;4.60;;
25191;SDS011;13143;50.924;5.320;2023-12-20T07:02:06;35.10;;;4.80;;
25191;SDS011;13143;50.924;5.320;2023-12-20T07:04:32;26.92;;;4.82;;
25191;SDS011;13143;50.924;5.320;2023-12-20T07:06:57;24.63;;;4.63;;
25191;SDS011;13143;50.924;5.320;2023-12-20T07:09:25;17.15;;;4.38;;
25191;SDS011;13143;50.924;5.320;2023-12-20T07:11:51;25.67;;;4.85;;
25191;SDS011;13143;50.924;5.320;2023-12-20T07:14:18;27.08;;;4.65;;
25191;SDS011;13143;50.924;5.320;2023-12-20T07:16:43;20.48;;;4.93;;
25191;SDS011;13143;50.924;5.320;2023-12-20T07:19:09;26.40;;;5.00;;
25191;SDS011;13143;50.924;5.320;2023-12-20T07:21:35;28.35;;;4.97;;
25191;SDS011;13143;50.924;5.320;2023-12-20T07:24:00;25.73;;;5.25;;
25191;SDS011;13143;50.924;5.320;2023-12-20T07:26:26;36.10;;;5.80;;
25191;SDS011;13143;50.924;5.320;2023-12-20T07:28:52;23.17;;;6.53;;
25191;SDS011;13143;50.924;5.320;2023-12-20T07:31:18;27.58;;;6.03;;
25191;SDS011;13143;50.924;5.320;2023-12-20T07:33:43;20.55;;;5.50;;
25191;SDS011;13143;50.924;5.320;2023-12-20T07:36:09;25.98;;;5.38;;
25191;SDS011;13143;50.924;5.320;2023-12-20T07:38:35;26.88;;;5.93;;
25191;SDS011;13143;50.924;5.320;2023-12-20T07:41:01;27.23;;;4.90;;
25191;SDS011;13143;50.924;5.320;2023-12-20T07:43:26;17.83;;;5.00;;
25191;SDS011;13143;50.924;5.320;2023-12-20T07:45:52;24.60;;;5.00;;
25191;SDS011;13143;50.924;5.320;2023-12-20T07:48:18;22.20;;;4.90;;
25191;SDS011;13143;50.924;5.320;2023-12-20T07:50:43;20.60;;;5.32;;
25191;SDS011;13143;50.924;5.320;2023-12-20T07:53:09;28.85;;;5.25;;
25191;SDS011;13143;50.924;5.320;2023-12-20T07:55:35;30.77;;;6.05;;
25191;SDS011;13143;50.924;5.320;2023-12-20T07:58:00;24.48;;;4.65;;
25191;SDS011;13143;50.924;5.320;2023-12-20T08:00:26;25.60;;;4.72;;
25191;SDS011;13143;50.924;5.320;2023-12-20T08:02:52;24.33;;;5.00;;
25191;SDS011;13143;50.924;5.320;2023-12-20T08:05:18;21.23;;;4.60;;
25191;SDS011;13143;50.924;5.320;2023-12-20T08:07:43;21.33;;;4.65;;
25191;SDS011;13143;50.924;5.320;2023-12-20T08:10:09;26.55;;;4.45;;
25191;SDS011;13143;50.924;5.320;2023-12-20T08:12:36;22.33;;;5.25;;
25191;SDS011;13143;50.924;5.320;2023-12-20T08:15:02;22.35;;;4.47;;
25191;SDS011;13143;50.924;5.320;2023-12-20T08:17:29;22.38;;;4.72;;
25191;SDS011;13143;50.924;5.320;2023-12-20T08:19:55;23.60;;;4.97;;
25191;SDS011;13143;50.924;5.320;2023-12-20T08:22:21;20.88;;;4.47;;
25191;SDS011;13143;50.924;5.320;2023-12-20T08:24:47;18.38;;;3.60;;
25191;SDS011;13143;50.924;5.320;2023-12-20T08:27:13;23.83;;;4.55;;
25191;SDS011;13143;50.924;5.320;2023-12-20T08:29:38;23.95;;;4.30;;
25191;SDS011;13143;50.924;5.320;2023-12-20T08:32:04;19.13;;;3.97;;
25191;SDS011;13143;50.924;5.320;2023-12-20T08:34:30;32.13;;;4.95;;
25191;SDS011;13143;50.924;5.320;2023-12-20T08:36:56;25.85;;;3.83;;
25191;SDS011;13143;50.924;5.320;2023-12-20T08:39:22;21.67;;;3.67;;
25191;SDS011;13143;50.924;5.320;2023-12-20T08:41:47;20.13;;;4.35;;
25191;SDS011;13143;50.924;5.320;2023-12-20T08:44:13;17.60;;;3.63;;
25191;SDS011;13143;50.924;5.320;2023-12-20T08:46:39;26.52;;;4.78;;
25191;SDS011;13143;50.924;5.320;2023-12-20T08:49:04;24.75;;;4.10;;
25191;SDS011;13143;50.924;5.320;2023-12-20T08:51:30;22.05;;;4.20;;
25191;SDS011;13143;50.924;5.320;2023-12-20T08:53:56;24.92;;;4.00;;
25191;SDS011;13143;50.924;5.320;2023-12-20T08:56:22;23.10;;;3.90;;
25191;SDS011;13143;50.924;5.320;2023-12-20T08:58:47;24.40;;;4.55;;
25191;SDS011;13143;50.924;5.320;2023-12-20T09:01:13;19.80;;;4.13;;
25191;SDS011;13143;50.924;5.320;2023-12-20T09:03:40;19.20;;;4.03;;
25191;SDS011;13143;50.924;5.320;2023-12-20T09:06:06;23.45;;;4.22;;
25191;SDS011;13143;50.924;5.320;2023-12-20T09:08:32;17.48;;;3.70;;
25191;SDS011;13143;50.924;5.320;2023-12-20T09:10:58;23.30;;;4.93;;
25191;SDS011;13143;50.924;5.320;2023-12-20T09:13:24;27.20;;;4.38;;
25191;SDS011;13143;50.924;5.320;2023-12-20T09:15:56;19.48;;;3.85;;
25191;SDS011;13143;50.924;5.320;2023-12-20T09:18:22;19.27;;;3.88;;
25191;SDS011;13143;50.924;5.320;2023-12-20T09:20:48;14.75;;;3.45;;
25191;SDS011;13143;50.924;5.320;2023-12-20T09:23:14;24.83;;;3.97;;
25191;SDS011;13143;50.924;5.320;2023-12-20T09:25:40;25.17;;;4.05;;
25191;SDS011;13143;50.924;5.320;2023-12-20T09:28:06;16.85;;;3.50;;
25191;SDS011;13143;50.924;5.320;2023-12-20T09:30:31;18.25;;;3.33;;
25191;SDS011;13143;50.924;5.320;2023-12-20T09:32:57;24.02;;;4.15;;
25191;SDS011;13143;50.924;5.320;2023-12-20T09:35:23;20.50;;;3.80;;
25191;SDS011;13143;50.924;5.320;2023-12-20T09:37:49;18.30;;;3.70;;
25191;SDS011;13143;50.924;5.320;2023-12-20T09:40:16;24.15;;;3.72;;
25191;SDS011;13143;50.924;5.320;2023-12-20T09:45:27;25.73;;;3.65;;
25191;SDS011;13143;50.924;5.320;2023-12-20T09:47:53;18.98;;;3.38;;
25191;SDS011;13143;50.924;5.320;2023-12-20T09:50:22;24.20;;;4.25;;
25191;SDS011;13143;50.924;5.320;2023-12-20T09:52:50;18.70;;;3.90;;
25191;SDS011;13143;50.924;5.320;2023-12-20T09:55:18;20.33;;;4.22;;
25191;SDS011;13143;50.924;5.320;2023-12-20T09:57:44;27.23;;;3.80;;
25191;SDS011;13143;50.924;5.320;2023-12-20T10:00:14;26.10;;;3.47;;
25191;SDS011;13143;50.924;5.320;2023-12-20T10:03:01;22.45;;;5.15;;
25191;SDS011;13143;50.924;5.320;2023-12-20T10:05:30;37.75;;;7.28;;
25191;SDS011;13143;50.924;5.320;2023-12-20T10:07:57;52.83;;;8.50;;
25191;SDS011;13143;50.924;5.320;2023-12-20T10:10:24;30.00;;;4.32;;
25191;SDS011;13143;50.924;5.320;2023-12-20T10:13:03;37.20;;;5.45;;
25191;SDS011;13143;50.924;5.320;2023-12-20T10:15:34;27.40;;;4.65;;
25191;SDS011;13143;50.924;5.320;2023-12-20T10:18:01;30.30;;;5.07;;
25191;SDS011;13143;50.924;5.320;2023-12-20T10:20:27;21.63;;;3.83;;
25191;SDS011;13143;50.924;5.320;2023-12-20T10:22:54;26.48;;;4.72;;
25191;SDS011;13143;50.924;5.320;2023-12-20T10:25:20;24.42;;;3.70;;
25191;SDS011;13143;50.924;5.320;2023-12-20T10:27:46;18.90;;;4.47;;
25191;SDS011;13143;50.924;5.320;2023-12-20T10:30:13;19.70;;;3.78;;
25191;SDS011;13143;50.924;5.320;2023-12-20T10:32:39;27.25;;;3.72;;
25191;SDS011;13143;50.924;5.320;2023-12-20T10:35:05;25.35;;;4.85;;
25191;SDS011;13143;50.924;5.320;2023-12-20T10:37:34;29.42;;;5.97;;
25191;SDS011;13143;50.924;5.320;2023-12-20T10:40:01;17.83;;;4.45;;
25191;SDS011;13143;50.924;5.320;2023-12-20T10:42:29;22.00;;;4.00;;
25191;SDS011;13143;50.924;5.320;2023-12-20T10:44:55;21.08;;;4.30;;
25191;SDS011;13143;50.924;5.320;2023-12-20T10:47:22;23.80;;;4.18;;
25191;SDS011;13143;50.924;5.320;2023-12-20T10:49:51;21.77;;;3.75;;
25191;SDS011;13143;50.924;5.320;2023-12-20T10:52:18;22.88;;;3.63;;
25191;SDS011;13143;50.924;5.320;2023-12-20T10:54:45;17.77;;;3.80;;
25191;SDS011;13143;50.924;5.320;2023-12-20T10:57:11;19.60;;;3.95;;
25191;SDS011;13143;50.924;5.320;2023-12-20T10:59:37;17.00;;;3.38;;
25191;SDS011;13143;50.924;5.320;2023-12-20T11:02:04;17.85;;;4.72;;
25191;SDS011;13143;50.924;5.320;2023-12-20T11:04:35;17.15;;;3.33;;
25191;SDS011;13143;50.924;5.320;2023-12-20T11:07:35;20.52;;;4.13;;
25191;SDS011;13143;50.924;5.320;2023-12-20T11:10:29;24.33;;;3.80;;
25191;SDS011;13143;50.924;5.320;2023-12-20T11:13:06;21.02;;;4.00;;
25191;SDS011;13143;50.924;5.320;2023-12-20T11:15:46;23.75;;;3.22;;
25191;SDS011;13143;50.924;5.320;2023-12-20T11:18:12;23.83;;;3.30;;
25191;SDS011;13143;50.924;5.320;2023-12-20T11:20:39;21.33;;;3.78;;
25191;SDS011;13143;50.924;5.320;2023-12-20T11:23:06;17.42;;;3.67;;
25191;SDS011;13143;50.924;5.320;2023-12-20T11:25:56;18.92;;;4.43;;
25191;SDS011;13143;50.924;5.320;2023-12-20T11:28:22;21.85;;;3.67;;
25191;SDS011;13143;50.924;5.320;2023-12-20T11:30:50;24.10;;;4.55;;
25191;SDS011;13143;50.924;5.320;2023-12-20T11:33:17;21.25;;;3.97;;
25191;SDS011;13143;50.924;5.320;2023-12-20T11:35:50;19.20;;;4.05;;
25191;SDS011;13143;50.924;5.320;2023-12-20T11:38:16;24.95;;;3.50;;
25191;SDS011;13143;50.924;5.320;2023-12-20T11:40:42;25.38;;;3.63;;
25191;SDS011;13143;50.924;5.320;2023-12-20T11:43:09;19.52;;;3.13;;
25191;SDS011;13143;50.924;5.320;2023-12-20T11:45:34;25.58;;;3.67;;
25191;SDS011;13143;50.924;5.320;2023-12-20T11:48:03;30.45;;;4.78;;
25191;SDS011;13143;50.924;5.320;2023-12-20T11:50:29;18.58;;;3.65;;
25191;SDS011;13143;50.924;5.320;2023-12-20T11:52:56;18.98;;;3.63;;
25191;SDS011;13143;50.924;5.320;2023-12-20T11:55:22;19.48;;;3.38;;
25191;SDS011;13143;50.924;5.320;2023-12-20T11:57:49;16.13;;;3.65;;
25191;SDS011;13143;50.924;5.320;2023-12-20T12:00:16;22.25;;;3.38;;
25191;SDS011;13143;50.924;5.320;2023-12-20T12:02:42;23.67;;;4.07;;
25191;SDS011;13143;50.924;5.320;2023-12-20T12:05:08;22.42;;;3.63;;
25191;SDS011;13143;50.924;5.320;2023-12-20T12:07:34;19.20;;;3.65;;
25191;SDS011;13143;50.924;5.320;2023-12-20T12:10:00;24.50;;;4.30;;
25191;SDS011;13143;50.924;5.320;2023-12-20T12:12:28;26.02;;;4.03;;
25191;SDS011;13143;50.924;5.320;2023-12-20T12:14:55;21.55;;;4.13;;
25191;SDS011;13143;50.924;5.320;2023-12-20T12:17:22;28.88;;;4.32;;
25191;SDS011;13143;50.924;5.320;2023-12-20T12:19:48;15.00;;;4.10;;
25191;SDS011;13143;50.924;5.320;2023-12-20T12:22:14;24.75;;;3.97;;
25191;SDS011;13143;50.924;5.320;2023-12-20T12:24:42;20.73;;;3.88;;
25191;SDS011;13143;50.924;5.320;2023-12-20T12:27:09;18.42;;;4.43;;
25191;SDS011;13143;50.924;5.320;2023-12-20T12:29:35;22.88;;;3.88;;
25191;SDS011;13143;50.924;5.320;2023-12-20T12:32:05;20.02;;;4.10;;
25191;SDS011;13143;50.924;5.320;2023-12-20T12:34:32;21.38;;;3.63;;
25191;SDS011;13143;50.924;5.320;2023-12-20T12:36:59;16.30;;;3.45;;
25191;SDS011;13143;50.924;5.320;2023-12-20T12:39:25;21.33;;;4.15;;
25191;SDS011;13143;50.924;5.320;2023-12-20T12:41:51;23.63;;;4.30;;
25191;SDS011;13143;50.924;5.320;2023-12-20T12:44:17;19.65;;;4.32;;
25191;SDS011;13143;50.924;5.320;2023-12-20T12:46:44;22.27;;;3.92;;
25191;SDS011;13143;50.924;5.320;2023-12-20T12:49:11;29.30;;;4.55;;
25191;SDS011;13143;50.924;5.320;2023-12-20T12:51:36;31.95;;;5.60;;
25191;SDS011;13143;50.924;5.320;2023-12-20T12:54:02;22.92;;;4.32;;
25191;SDS011;13143;50.924;5.320;2023-12-20T12:56:28;26.67;;;5.65;;
25191;SDS011;13143;50.924;5.320;2023-12-20T12:58:54;24.52;;;4.43;;
25191;SDS011;13143;50.924;5.320;2023-12-20T13:01:20;26.60;;;4.80;;
25191;SDS011;13143;50.924;5.320;2023-12-20T13:03:46;19.98;;;4.28;;
25191;SDS011;13143;50.924;5.320;2023-12-20T13:06:12;20.38;;;4.32;;
25191;SDS011;13143;50.924;5.320;2023-12-20T13:08:38;21.05;;;3.50;;
25191;SDS011;13143;50.924;5.320;2023-12-20T13:11:04;29.40;;;3.70;;
25191;SDS011;13143;50.924;5.320;2023-12-20T13:13:30;24.63;;;3.83;;
25191;SDS011;13143;50.924;5.320;2023-12-20T13:15:56;27.27;;;4.25;;
25191;SDS011;13143;50.924;5.320;2023-12-20T13:18:22;22.70;;;3.70;;
25191;SDS011;13143;50.924;5.320;2023-12-20T13:20:49;29.45;;;3.83;;
25191;SDS011;13143;50.924;5.320;2023-12-20T13:23:15;24.33;;;4.10;;
25191;SDS011;13143;50.924;5.320;2023-12-20T13:25:43;24.48;;;4.30;;
25191;SDS011;13143;50.924;5.320;2023-12-20T13:28:10;28.70;;;4.72;;
25191;SDS011;13143;50.924;5.320;2023-12-20T13:30:37;22.50;;;4.15;;
25191;SDS011;13143;50.924;5.320;2023-12-20T13:33:03;19.38;;;4.25;;
25191;SDS011;13143;50.924;5.320;2023-12-20T13:35:30;24.77;;;4.75;;
25191;SDS011;13143;50.924;5.320;2023-12-20T13:37:57;21.92;;;4.50;;
25191;SDS011;13143;50.924;5.320;2023-12-20T13:40:23;23.17;;;4.50;;
25191;SDS011;13143;50.924;5.320;2023-12-20T13:42:49;20.35;;;4.13;;
25191;SDS011;13143;50.924;5.320;2023-12-20T13:45:14;24.60;;;4.22;;
25191;SDS011;13143;50.924;5.320;2023-12-20T13:47:41;19.40;;;4.30;;
25191;SDS011;13143;50.924;5.320;2023-12-20T13:50:07;28.10;;;4.90;;
25191;SDS011;13143;50.924;5.320;2023-12-20T13:52:33;21.33;;;4.45;;
25191;SDS011;13143;50.924;5.320;2023-12-20T13:54:59;24.17;;;4.50;;
25191;SDS011;13143;50.924;5.320;2023-12-20T13:57:24;26.23;;;4.78;;
25191;SDS011;13143;50.924;5.320;2023-12-20T13:59:50;21.10;;;5.03;;
25191;SDS011;13143;50.924;5.320;2023-12-20T14:02:16;25.27;;;4.53;;
25191;SDS011;13143;50.924;5.320;2023-12-20T14:04:42;21.83;;;4.50;;
25191;SDS011;13143;50.924;5.320;2023-12-20T14:07:07;24.90;;;4.57;;
25191;SDS011;13143;50.924;5.320;2023-12-20T14:09:34;31.98;;;5.15;;
25191;SDS011;13143;50.924;5.320;2023-12-20T14:12:00;19.73;;;4.88;;
25191;SDS011;13143;50.924;5.320;2023-12-20T14:14:26;27.42;;;5.05;;
25191;SDS011;13143;50.924;5.320;2023-12-20T14:16:51;18.33;;;4.05;;
25191;SDS011;13143;50.924;5.320;2023-12-20T14:19:17;15.52;;;4.35;;
25191;SDS011;13143;50.924;5.320;2023-12-20T14:21:43;22.55;;;5.15;;
25191;SDS011;13143;50.924;5.320;2023-12-20T14:24:11;21.52;;;5.43;;
25191;SDS011;13143;50.924;5.320;2023-12-20T14:26:40;22.23;;;4.50;;
25191;SDS011;13143;50.924;5.320;2023-12-20T14:29:06;17.45;;;4.38;;
25191;SDS011;13143;50.924;5.320;2023-12-20T14:31:32;21.17;;;4.03;;